This is the latest recevied weather packets stored in our database for station/object N7BTW-13. If no packets are shown the sender has not sent any weather packets the latest 10 day(s).
| Time | Temp. | Humidity | Pressure | Rain* | Wind** | Luminosity | Snow |
|---|---|---|---|---|---|---|---|
| 1788409207 | 13.33° C | 95% | - | 0 mm | - | - | - |
| 1788408607 | 13.33° C | 95% | - | 0 mm | - | - | - |
| 1788408008 | 13.33° C | 94% | - | 0 mm | - | - | - |
| 1788407409 | 13.89° C | 94% | - | 0 mm | - | - | - |
| 1788406811 | 13.89° C | 94% | - | 0 mm | - | - | - |
| 1788406208 | 13.89° C | 91% | - | 0 mm | - | - | - |
| 1788405607 | 14.44° C | 89% | - | 0 mm | - | - | - |
| 1788405007 | 15° C | 87% | - | 0 mm | - | - | - |
| 1788404406 | 15.56° C | 86% | - | 0 mm | - | - | - |
| 1788403807 | 16.11° C | 85% | - | 0 mm | - | - | - |
| 1788403208 | 16.67° C | 83% | - | 0 mm | - | - | - |
| 1788402610 | 17.22° C | 82% | - | 0 mm | - | - | - |
| 1788402008 | 17.22° C | 82% | - | 0 mm | - | - | - |
| 1788401407 | 17.78° C | 79% | - | 0 mm | - | - | - |
| 1788400808 | 17.78° C | 77% | - | 0 mm | - | - | - |
| 1788400213 | 18.33° C | 77% | - | 0 mm | - | - | - |
| 1788399607 | 18.33° C | 77% | - | 0 mm | - | - | - |
| 1788399008 | 17.78° C | 78% | - | 0 mm | - | - | - |
| 1788398408 | 18.89° C | 75% | - | 0 mm | - | - | - |
| 1788397807 | 19.44° C | 74% | - | 0 mm | - | - | - |
| 1788397206 | 19.44° C | 76% | - | 0 mm | - | - | - |
| 1788396606 | 20° C | 73% | - | 0 mm | - | - | - |
| 1788396006 | 19.44° C | 74% | - | 0 mm | - | - | - |
| 1788395407 | 18.89° C | 79% | - | 0 mm | - | - | - |
| 1788394808 | 18.33° C | 81% | - | 0 mm | - | - | - |
* Rain latest hour (hover to see other rain measurements)
** Current wind speed in m/s (hover to see current wind gust speed)